KAKH/AKH METAR and TAF weather

Enter ICAO airport designator
Station Type Date Time Source
KAKH METAR 2020/10/20 17:54 UTC NOAA

KAKH 201754Z AUTO 00000KT 10SM CLR 25/13 A3023 RMK AO2 SLP233 T02500133 10256 20111 58016


Station Type Date Time Source
KAKH Decoded METAR 2020/10/20 17:54 UTC NOAA

GASTONIA MUNICIPAL AIRPORT, NC, United States (KAKH) 35-12N 81-09W 243M
Oct 20, 2020 - 01:54 PM EDT / 2020.10.20 1754 UTC
Wind: Calm:0
Visibility: 10 mile(s):0
Sky conditions: clear
Temperature: 77.0 F (25.0 C)
Dew Point: 55.9 F (13.3 C)
Relative Humidity: 48%
Pressure (altimeter): 30.23 in. Hg (1023 hPa)
Pressure tendency: 0.05 inches (1.6 hPa) lower than three hours ago
ob: KAKH 201754Z AUTO 00000KT 10SM CLR 25/13 A3023 RMK AO2 SLP233 T02500133 10256 20111 58016
cycle: 18

Station Type Date Time Source
KAKH TAF UTC NOAA

Error!

Example: see airport list